createdAt,value
2017-06-19T00:01:35.911Z,4.33
2017-06-19T00:04:02.523Z,5.20
2017-06-19T00:06:29.163Z,5.00
2017-06-19T00:08:55.787Z,5.40
2017-06-19T00:11:22.424Z,5.40
2017-06-19T00:13:49.062Z,5.00
2017-06-19T00:16:15.671Z,4.43
2017-06-19T00:18:42.299Z,4.23
2017-06-19T00:21:15.075Z,4.90
2017-06-19T00:23:47.550Z,4.30
2017-06-19T00:26:14.171Z,3.77
2017-06-19T00:28:40.829Z,5.20
2017-06-19T00:31:07.472Z,4.80
2017-06-19T00:33:34.079Z,5.90
2017-06-19T00:36:00.721Z,4.77
2017-06-19T00:38:27.349Z,4.83
2017-06-19T00:40:53.962Z,6.10
2017-06-19T00:43:20.621Z,6.97
2017-06-19T00:45:47.258Z,4.47
2017-06-19T00:48:13.879Z,4.33
2017-06-19T00:50:40.523Z,4.20
2017-06-19T00:53:07.159Z,4.13
2017-06-19T00:55:33.758Z,4.17
2017-06-19T00:58:00.387Z,3.70
2017-06-19T01:00:27.010Z,4.80
2017-06-19T01:02:53.671Z,4.87
2017-06-19T01:05:20.299Z,4.77
2017-06-19T01:07:46.934Z,4.80
2017-06-19T01:10:13.539Z,5.37
2017-06-19T01:12:40.176Z,4.23
2017-06-19T01:15:06.783Z,4.33
2017-06-19T01:17:33.395Z,3.80
2017-06-19T01:20:00.042Z,4.33
2017-06-19T01:22:26.647Z,4.60
2017-06-19T01:24:53.286Z,4.70
2017-06-19T01:27:20.156Z,7.17
2017-06-19T01:29:46.771Z,4.97
2017-06-19T01:32:13.421Z,5.07
2017-06-19T01:34:40.050Z,3.33
2017-06-19T01:37:06.652Z,5.07
2017-06-19T01:39:33.289Z,4.70
2017-06-19T01:41:59.907Z,4.63
2017-06-19T01:44:26.514Z,4.00
2017-06-19T01:46:53.152Z,4.53
2017-06-19T01:49:19.791Z,4.90
2017-06-19T01:51:46.432Z,5.40
2017-06-19T01:54:13.052Z,4.63
2017-06-19T01:56:39.683Z,5.00
2017-06-19T01:59:06.319Z,4.10
2017-06-19T02:01:32.955Z,4.27
2017-06-19T02:03:59.595Z,3.57
2017-06-19T02:06:26.226Z,4.00
2017-06-19T02:08:53.171Z,4.03
2017-06-19T02:11:19.784Z,3.70
2017-06-19T02:13:46.406Z,4.17
2017-06-19T02:16:13.042Z,3.80
2017-06-19T02:18:39.656Z,4.50
2017-06-19T02:21:06.293Z,5.07
2017-06-19T02:23:32.915Z,5.77
2017-06-19T02:25:59.574Z,5.23
2017-06-19T02:28:26.207Z,4.40
2017-06-19T02:30:52.822Z,5.83
2017-06-19T02:33:19.463Z,3.57
2017-06-19T02:35:46.099Z,2.50
2017-06-19T02:38:12.735Z,2.60
2017-06-19T02:40:39.356Z,2.83
2017-06-19T02:43:05.976Z,3.37
2017-06-19T02:45:32.608Z,3.00
2017-06-19T02:47:59.236Z,4.00
2017-06-19T02:50:25.859Z,4.50
2017-06-19T02:52:52.492Z,5.23
2017-06-19T02:55:19.101Z,6.60
2017-06-19T02:57:45.719Z,6.27
2017-06-19T03:00:12.378Z,6.13
2017-06-19T03:02:38.994Z,4.30
2017-06-19T03:05:05.623Z,3.80
2017-06-19T03:07:32.293Z,4.20
2017-06-19T03:10:04.936Z,4.20
2017-06-19T03:12:31.595Z,3.63
2017-06-19T03:14:58.210Z,5.00
2017-06-19T03:17:24.822Z,4.50
2017-06-19T03:19:51.458Z,5.00
2017-06-19T03:22:18.095Z,3.90
2017-06-19T03:24:44.718Z,3.57
2017-06-19T03:27:11.372Z,4.00
2017-06-19T03:29:37.987Z,5.17
2017-06-19T03:32:04.611Z,4.10
2017-06-19T03:34:31.243Z,5.30
2017-06-19T03:36:57.851Z,4.67
2017-06-19T03:39:24.894Z,4.30
2017-06-19T03:41:51.538Z,4.97
2017-06-19T03:44:18.174Z,4.63
2017-06-19T03:46:44.785Z,5.50
2017-06-19T03:49:11.435Z,5.00
2017-06-19T03:51:38.083Z,4.40
2017-06-19T03:54:04.718Z,3.87
2017-06-19T03:56:31.331Z,3.30
2017-06-19T03:58:57.965Z,4.13
2017-06-19T04:01:24.566Z,4.40
2017-06-19T04:03:51.192Z,4.10
2017-06-19T04:06:17.820Z,3.97
2017-06-19T04:08:44.455Z,3.63
2017-06-19T04:11:11.107Z,5.00
2017-06-19T04:13:37.783Z,5.10
2017-06-19T04:16:04.383Z,5.03
2017-06-19T04:18:31.362Z,5.57
2017-06-19T04:20:57.958Z,5.67
2017-06-19T04:23:24.600Z,5.30
2017-06-19T04:25:51.216Z,5.90
2017-06-19T04:28:17.844Z,6.33
2017-06-19T04:30:44.450Z,6.67
2017-06-19T04:33:11.080Z,6.83
2017-06-19T04:35:37.712Z,7.33
2017-06-19T04:38:04.326Z,6.33
2017-06-19T04:40:30.959Z,7.20
2017-06-19T04:42:57.599Z,6.70
2017-06-19T04:45:24.220Z,5.97
2017-06-19T04:47:50.854Z,7.37
2017-06-19T04:50:17.472Z,8.90
2017-06-19T04:52:44.131Z,8.10
2017-06-19T04:55:10.746Z,8.20
2017-06-19T04:57:37.418Z,7.90
2017-06-19T05:00:04.042Z,7.27
2017-06-19T05:02:30.650Z,6.97
2017-06-19T05:04:57.290Z,8.47
2017-06-19T05:07:23.940Z,7.60
2017-06-19T05:09:50.547Z,7.53
2017-06-19T05:12:17.174Z,7.67
2017-06-19T05:14:43.805Z,7.37
2017-06-19T05:17:10.458Z,7.33
2017-06-19T05:19:37.083Z,7.80
2017-06-19T05:22:03.701Z,7.00
2017-06-19T05:24:30.346Z,7.00
2017-06-19T05:26:57.852Z,5.90
2017-06-19T05:29:24.470Z,7.17
2017-06-19T05:31:51.117Z,6.60
2017-06-19T05:34:17.740Z,5.37
2017-06-19T05:36:44.364Z,5.20
2017-06-19T05:39:10.998Z,6.17
2017-06-19T05:41:37.645Z,5.20
2017-06-19T05:44:04.271Z,6.53
2017-06-19T05:46:30.890Z,7.40
2017-06-19T05:48:57.528Z,7.33
2017-06-19T05:51:24.150Z,7.13
2017-06-19T05:53:50.820Z,7.60
2017-06-19T05:56:17.428Z,7.60
2017-06-19T05:58:44.067Z,7.70
2017-06-19T06:01:10.720Z,6.67
2017-06-19T06:03:37.979Z,6.90
2017-06-19T06:06:04.600Z,6.53
2017-06-19T06:08:31.239Z,6.97
2017-06-19T06:10:57.869Z,7.10
2017-06-19T06:13:24.491Z,8.03
2017-06-19T06:15:51.132Z,5.67
2017-06-19T06:18:17.743Z,5.90
2017-06-19T06:20:44.397Z,5.83
2017-06-19T06:23:11.006Z,5.17
2017-06-19T06:25:37.651Z,4.90
2017-06-19T06:28:04.319Z,4.43
2017-06-19T06:30:30.930Z,4.33
2017-06-19T06:32:57.569Z,4.30
2017-06-19T06:35:24.199Z,4.50
2017-06-19T06:37:50.827Z,3.20
2017-06-19T06:40:17.459Z,3.37
2017-06-19T06:42:44.088Z,3.20
2017-06-19T06:45:10.720Z,4.00
2017-06-19T06:47:37.346Z,3.20
2017-06-19T06:50:03.961Z,2.40
2017-06-19T06:52:30.602Z,3.30
2017-06-19T06:54:57.219Z,2.50
2017-06-19T06:57:23.847Z,3.07
2017-06-19T06:59:50.456Z,3.30
2017-06-19T07:02:17.076Z,2.60
2017-06-19T07:04:43.710Z,2.97
2017-06-19T07:07:10.351Z,2.53
2017-06-19T07:09:37.328Z,2.87
2017-06-19T07:12:03.957Z,2.40
2017-06-19T07:14:30.582Z,2.73
2017-06-19T07:16:57.200Z,2.03
2017-06-19T07:19:23.860Z,2.93
2017-06-19T07:21:50.815Z,2.90
2017-06-19T07:24:17.759Z,2.47
2017-06-19T07:26:44.394Z,2.43
2017-06-19T07:29:11.032Z,2.70
2017-06-19T07:31:40.167Z,2.60
2017-06-19T07:34:06.911Z,2.03
2017-06-19T07:36:33.592Z,2.87
2017-06-19T07:39:00.260Z,2.43
2017-06-19T07:41:26.866Z,2.50
2017-06-19T07:43:53.487Z,1.83
2017-06-19T07:46:20.455Z,2.27
2017-06-19T07:48:47.061Z,2.53
2017-06-19T07:51:13.719Z,2.13
2017-06-19T07:53:40.369Z,2.47
2017-06-19T07:56:06.992Z,2.63
2017-06-19T07:58:33.624Z,2.60
2017-06-19T08:01:00.239Z,2.10
2017-06-19T08:03:26.879Z,2.40
2017-06-19T08:05:53.512Z,2.20
2017-06-19T08:08:20.132Z,2.10
2017-06-19T08:10:46.776Z,1.83
2017-06-19T08:13:13.396Z,2.60
2017-06-19T08:15:40.305Z,2.13
2017-06-19T08:18:06.926Z,2.10
2017-06-19T08:20:33.540Z,1.90
2017-06-19T08:23:00.207Z,2.17
2017-06-19T08:25:26.914Z,2.30
2017-06-19T08:27:53.550Z,2.50
2017-06-19T08:30:20.625Z,2.97
2017-06-19T08:32:48.120Z,3.00
2017-06-19T08:35:15.136Z,2.43
2017-06-19T08:37:41.756Z,2.77
2017-06-19T08:40:08.384Z,2.37
2017-06-19T08:42:35.337Z,3.00
2017-06-19T08:45:01.972Z,2.63
2017-06-19T08:47:28.608Z,2.80
2017-06-19T08:49:55.246Z,3.07
2017-06-19T08:52:21.859Z,3.00
2017-06-19T08:54:48.491Z,2.80
2017-06-19T08:57:15.121Z,2.57
2017-06-19T08:59:42.098Z,3.30
2017-06-19T09:02:08.722Z,2.40
2017-06-19T09:04:35.806Z,3.20
2017-06-19T09:07:02.462Z,3.50
2017-06-19T09:09:29.088Z,2.73
2017-06-19T09:11:56.925Z,2.93
2017-06-19T09:14:23.579Z,2.60
2017-06-19T09:16:50.198Z,2.97
2017-06-19T09:19:16.819Z,3.40
2017-06-19T09:21:43.455Z,2.90
2017-06-19T09:24:10.329Z,2.80
2017-06-19T09:26:36.940Z,3.10
2017-06-19T09:29:03.569Z,2.53
2017-06-19T09:31:30.754Z,3.20
2017-06-19T09:33:57.376Z,2.40
2017-06-19T09:36:23.996Z,3.13
2017-06-19T09:38:50.632Z,2.43
2017-06-19T09:41:17.247Z,2.30
2017-06-19T09:43:43.888Z,2.80
2017-06-19T09:46:10.530Z,2.67
2017-06-19T09:48:37.163Z,2.63
2017-06-19T09:51:03.784Z,2.13
2017-06-19T09:53:30.677Z,2.10
2017-06-19T09:55:57.313Z,2.50
2017-06-19T09:58:23.923Z,1.40
2017-06-19T10:00:50.701Z,1.87
2017-06-19T10:03:17.640Z,2.20
2017-06-19T10:05:44.274Z,1.97
2017-06-19T10:08:10.909Z,1.90
2017-06-19T10:10:37.514Z,2.33
2017-06-19T10:13:04.155Z,1.60
2017-06-19T10:15:30.800Z,2.27
2017-06-19T10:17:57.439Z,2.23
2017-06-19T10:20:24.065Z,2.10
2017-06-19T10:22:50.693Z,1.83
2017-06-19T10:25:17.307Z,1.63
2017-06-19T10:27:43.978Z,2.10
2017-06-19T10:30:10.610Z,2.37
2017-06-19T10:32:37.256Z,2.07
2017-06-19T10:35:03.918Z,1.50
2017-06-19T10:37:30.534Z,2.10
2017-06-19T10:39:57.168Z,1.83
2017-06-19T10:42:23.808Z,1.70
2017-06-19T10:44:50.470Z,1.40
2017-06-19T10:47:17.089Z,1.40
2017-06-19T10:49:43.718Z,1.33
2017-06-19T10:52:10.667Z,2.00
2017-06-19T10:54:37.276Z,2.20
2017-06-19T10:57:03.909Z,1.80
2017-06-19T10:59:30.527Z,1.87
2017-06-19T11:01:57.145Z,1.30
2017-06-19T11:04:23.783Z,2.40
2017-06-19T11:06:50.413Z,1.90
2017-06-19T11:09:17.039Z,1.40
2017-06-19T11:11:43.678Z,1.60
2017-06-19T11:14:10.670Z,2.10
2017-06-19T11:16:37.271Z,1.73
2017-06-19T11:19:03.911Z,1.63
2017-06-19T11:21:30.562Z,1.70
2017-06-19T11:23:57.551Z,1.67
2017-06-19T11:26:24.201Z,1.70
2017-06-19T11:28:50.827Z,1.70
2017-06-19T11:31:17.466Z,1.60
2017-06-19T11:33:44.138Z,2.13
2017-06-19T11:36:10.751Z,2.30
2017-06-19T11:38:37.393Z,1.77
2017-06-19T11:41:04.011Z,1.70
2017-06-19T11:43:30.631Z,1.90
2017-06-19T11:45:57.276Z,1.80
2017-06-19T11:48:24.197Z,1.90
2017-06-19T11:50:50.819Z,1.90
2017-06-19T11:53:17.452Z,1.63
2017-06-19T11:55:44.080Z,2.10
2017-06-19T11:58:10.719Z,1.83
2017-06-19T12:00:37.366Z,1.17
2017-06-19T12:03:04.003Z,1.50
2017-06-19T12:05:30.609Z,1.47
2017-06-19T12:07:57.246Z,1.80
2017-06-19T12:10:23.875Z,1.73
2017-06-19T12:12:50.508Z,1.80
2017-06-19T12:15:17.537Z,1.90
2017-06-19T12:17:44.160Z,1.27
2017-06-19T12:20:10.800Z,1.47
2017-06-19T12:22:37.420Z,1.57
2017-06-19T12:25:04.060Z,2.20
2017-06-19T12:27:30.699Z,1.77
2017-06-19T12:29:57.323Z,1.73
2017-06-19T12:32:23.951Z,1.60
2017-06-19T12:34:50.993Z,1.90
2017-06-19T12:37:17.608Z,2.00
2017-06-19T12:39:44.234Z,1.33
2017-06-19T12:42:10.883Z,2.17
2017-06-19T12:44:37.515Z,2.10
2017-06-19T12:47:04.139Z,2.70
2017-06-19T12:49:30.783Z,1.40
2017-06-19T12:51:57.436Z,1.80
2017-06-19T12:54:24.055Z,2.20
2017-06-19T12:56:50.719Z,2.07
2017-06-19T12:59:17.367Z,1.97
2017-06-19T13:01:44.001Z,1.93
2017-06-19T13:04:10.678Z,2.40
2017-06-19T13:06:37.309Z,1.80
2017-06-19T13:09:03.932Z,2.30
2017-06-19T13:11:30.588Z,2.20
2017-06-19T13:13:57.251Z,1.87
2017-06-19T13:16:23.907Z,1.70
2017-06-19T13:18:50.535Z,2.00
2017-06-19T13:21:17.191Z,2.37
2017-06-19T13:23:43.798Z,1.53
2017-06-19T13:26:10.436Z,1.30
2017-06-19T13:28:37.065Z,1.53
2017-06-19T13:31:04.032Z,1.40
2017-06-19T13:33:30.666Z,1.73
2017-06-19T13:35:57.291Z,1.77
2017-06-19T13:38:23.960Z,1.63
2017-06-19T13:40:50.590Z,1.37
2017-06-19T13:43:17.216Z,1.60
2017-06-19T13:45:43.856Z,1.40
2017-06-19T13:48:10.496Z,1.57
2017-06-19T13:50:37.120Z,1.77
2017-06-19T13:53:03.835Z,2.57
2017-06-19T13:55:30.448Z,2.00
2017-06-19T13:57:57.107Z,1.70
2017-06-19T14:00:23.759Z,2.00
2017-06-19T14:02:50.395Z,1.60
2017-06-19T14:05:17.019Z,1.37
2017-06-19T14:07:43.659Z,1.73
2017-06-19T14:10:10.279Z,1.83
2017-06-19T14:12:36.924Z,1.80
2017-06-19T14:15:03.552Z,1.93
2017-06-19T14:17:30.190Z,2.40
2017-06-19T14:19:56.826Z,2.13
2017-06-19T14:22:23.497Z,2.03
2017-06-19T14:24:50.108Z,2.53
2017-06-19T14:27:16.735Z,2.80
2017-06-19T14:29:43.359Z,2.23
2017-06-19T14:32:09.995Z,2.50
2017-06-19T14:34:36.606Z,1.93
2017-06-19T14:37:03.251Z,1.80
2017-06-19T14:39:29.861Z,2.10
2017-06-19T14:41:56.505Z,2.37
2017-06-19T14:44:23.155Z,1.97
2017-06-19T14:46:49.789Z,2.00
2017-06-19T14:49:16.399Z,1.67
2017-06-19T14:51:43.088Z,1.60
2017-06-19T14:54:09.711Z,2.07
2017-06-19T14:56:36.335Z,1.50
2017-06-19T14:59:03.009Z,2.30
2017-06-19T15:01:29.632Z,2.40
2017-06-19T15:03:56.287Z,2.73
2017-06-19T15:06:22.926Z,2.63
2017-06-19T15:08:50.282Z,2.30
2017-06-19T15:11:16.900Z,1.67
2017-06-19T15:13:43.526Z,2.03
2017-06-19T15:16:10.996Z,2.30
2017-06-19T15:18:37.639Z,2.10
2017-06-19T15:21:10.127Z,2.30
2017-06-19T15:23:42.463Z,1.83
2017-06-19T15:26:09.108Z,1.50
2017-06-19T15:28:35.731Z,2.20
2017-06-19T15:31:02.358Z,2.00
2017-06-19T15:33:28.986Z,2.43
2017-06-19T15:35:55.630Z,2.40
2017-06-19T15:38:22.291Z,1.97
2017-06-19T15:40:48.911Z,2.03
2017-06-19T15:43:15.556Z,1.90
2017-06-19T15:45:42.197Z,1.83
2017-06-19T15:48:08.857Z,2.27
2017-06-19T15:50:35.485Z,2.20
2017-06-19T15:53:02.140Z,1.97
2017-06-19T15:55:28.758Z,2.27
2017-06-19T15:57:55.377Z,1.80
2017-06-19T16:00:22.022Z,1.97
2017-06-19T16:02:48.637Z,1.90
2017-06-19T16:05:15.273Z,1.57
2017-06-19T16:07:41.875Z,2.17
2017-06-19T16:10:08.507Z,2.23
2017-06-19T16:12:35.114Z,1.83
2017-06-19T16:15:01.750Z,2.90
2017-06-19T16:17:28.414Z,2.17
2017-06-19T16:19:55.027Z,2.60
2017-06-19T16:22:21.672Z,1.90
2017-06-19T16:24:48.328Z,1.80
2017-06-19T16:27:14.960Z,2.20
2017-06-19T16:29:41.604Z,2.30
2017-06-19T16:32:08.243Z,1.80
2017-06-19T16:34:34.859Z,2.43
2017-06-19T16:37:01.482Z,1.90
2017-06-19T16:39:28.698Z,1.57
2017-06-19T16:41:55.315Z,1.80
2017-06-19T16:44:21.927Z,1.60
2017-06-19T16:46:48.564Z,2.03
2017-06-19T16:49:15.175Z,1.27
2017-06-19T16:51:41.810Z,1.87
2017-06-19T16:54:08.444Z,1.37
2017-06-19T16:56:35.047Z,2.03
2017-06-19T16:59:01.669Z,1.50
2017-06-19T17:01:28.317Z,1.70
2017-06-19T17:03:55.452Z,1.40
2017-06-19T17:06:22.067Z,1.70
2017-06-19T17:08:48.692Z,2.13
2017-06-19T17:11:15.304Z,1.83
2017-06-19T17:13:41.916Z,2.00
2017-06-19T17:16:08.550Z,1.83
2017-06-19T17:18:35.166Z,2.10
2017-06-19T17:21:01.799Z,1.80
2017-06-19T17:23:28.436Z,1.80
2017-06-19T17:25:55.055Z,1.30
2017-06-19T17:28:21.743Z,1.90
2017-06-19T17:30:48.397Z,2.13
2017-06-19T17:33:15.027Z,2.00
2017-06-19T17:35:41.651Z,2.00
2017-06-19T17:38:08.899Z,1.63
2017-06-19T17:40:35.508Z,1.70
2017-06-19T17:43:02.928Z,2.00
2017-06-19T17:45:29.587Z,1.50
2017-06-19T17:47:56.232Z,2.77
2017-06-19T17:50:22.873Z,1.63
2017-06-19T17:52:49.493Z,1.60
2017-06-19T17:55:16.155Z,1.90
2017-06-19T17:57:42.802Z,1.53
2017-06-19T18:00:09.402Z,2.23
2017-06-19T18:02:36.054Z,1.87
2017-06-19T18:05:02.695Z,1.93
2017-06-19T18:07:29.322Z,1.60
2017-06-19T18:09:55.979Z,1.80
2017-06-19T18:12:22.619Z,1.87
2017-06-19T18:14:49.254Z,1.87
2017-06-19T18:17:15.896Z,1.63
2017-06-19T18:19:42.539Z,1.93
2017-06-19T18:22:09.167Z,2.00
2017-06-19T18:24:35.801Z,1.93
2017-06-19T18:27:02.455Z,2.20
2017-06-19T18:29:29.073Z,2.23
2017-06-19T18:31:55.724Z,2.20
2017-06-19T18:34:22.379Z,2.50
2017-06-19T18:36:48.995Z,2.10
2017-06-19T18:39:15.628Z,1.97
2017-06-19T18:41:42.278Z,1.93
2017-06-19T18:44:08.900Z,1.83
2017-06-19T18:46:35.552Z,1.53
2017-06-19T18:49:02.203Z,1.70
2017-06-19T18:51:28.816Z,1.93
2017-06-19T18:53:55.459Z,1.70
2017-06-19T18:56:22.101Z,1.60
2017-06-19T18:58:48.755Z,2.13
2017-06-19T19:01:15.388Z,1.73
2017-06-19T19:03:42.011Z,2.00
2017-06-19T19:06:08.655Z,1.97
2017-06-19T19:08:35.266Z,1.70
2017-06-19T19:11:01.879Z,1.87
2017-06-19T19:13:28.508Z,2.23
2017-06-19T19:15:55.143Z,2.40
2017-06-19T19:18:21.796Z,1.90
2017-06-19T19:20:48.419Z,2.53
2017-06-19T19:23:15.052Z,2.10
2017-06-19T19:25:41.686Z,2.17
2017-06-19T19:28:08.326Z,1.67
2017-06-19T19:30:34.961Z,2.17
2017-06-19T19:33:01.600Z,2.17
2017-06-19T19:35:28.719Z,2.53
2017-06-19T19:37:55.344Z,2.37
2017-06-19T19:40:22.145Z,2.30
2017-06-19T19:42:48.821Z,2.37
2017-06-19T19:45:15.467Z,2.50
2017-06-19T19:47:42.096Z,2.83
2017-06-19T19:50:08.737Z,2.73
2017-06-19T19:52:35.364Z,3.30
2017-06-19T19:55:02.021Z,3.10
2017-06-19T19:57:28.637Z,3.03
2017-06-19T19:59:55.271Z,2.87
2017-06-19T20:02:21.950Z,2.57
2017-06-19T20:04:49.509Z,3.30
2017-06-19T20:07:16.176Z,3.10
2017-06-19T20:09:42.812Z,3.27
2017-06-19T20:12:09.448Z,3.13
2017-06-19T20:14:36.059Z,3.40
2017-06-19T20:17:02.702Z,3.70
2017-06-19T20:19:29.346Z,3.70
2017-06-19T20:21:55.977Z,3.00
2017-06-19T20:24:22.612Z,3.17
2017-06-19T20:26:49.242Z,4.10
2017-06-19T20:29:15.885Z,3.63
2017-06-19T20:31:42.490Z,3.13
2017-06-19T20:34:09.137Z,4.00
2017-06-19T20:36:35.754Z,3.77
2017-06-19T20:39:02.395Z,3.77
2017-06-19T20:41:29.042Z,4.50
2017-06-19T20:43:55.683Z,3.80
2017-06-19T20:46:22.309Z,3.77
2017-06-19T20:48:48.959Z,3.97
2017-06-19T20:51:15.895Z,3.80
2017-06-19T20:53:43.536Z,4.20
2017-06-19T20:56:10.248Z,4.10
2017-06-19T20:58:36.867Z,4.17
2017-06-19T21:01:07.233Z,3.77
2017-06-19T21:03:35.845Z,4.30
2017-06-19T21:06:04.641Z,4.30
2017-06-19T21:08:31.277Z,4.00
2017-06-19T21:10:57.940Z,4.27
2017-06-19T21:13:24.559Z,5.00
2017-06-19T21:15:51.207Z,5.50
2017-06-19T21:18:17.847Z,3.80
2017-06-19T21:20:44.621Z,4.37
2017-06-19T21:23:11.271Z,4.73
2017-06-19T21:25:37.918Z,5.13
2017-06-19T21:28:04.538Z,4.47
2017-06-19T21:30:31.154Z,4.73
2017-06-19T21:32:58.647Z,4.80
2017-06-19T21:35:25.310Z,5.00
2017-06-19T21:37:51.956Z,4.80
2017-06-19T21:40:18.607Z,4.63
2017-06-19T21:42:45.231Z,4.80
2017-06-19T21:45:11.874Z,4.73
2017-06-19T21:47:38.491Z,5.17
2017-06-19T21:50:05.156Z,4.60
2017-06-19T21:52:31.775Z,4.23
2017-06-19T21:54:58.447Z,5.20
2017-06-19T21:57:25.072Z,4.30
2017-06-19T21:59:51.736Z,5.63
2017-06-19T22:02:18.350Z,4.83
2017-06-19T22:04:45.012Z,5.13
2017-06-19T22:07:11.650Z,5.10
2017-06-19T22:09:39.074Z,4.93
2017-06-19T22:12:05.721Z,5.23
2017-06-19T22:14:32.340Z,5.07
2017-06-19T22:16:58.957Z,5.33
2017-06-19T22:19:25.623Z,5.47
2017-06-19T22:22:10.922Z,5.10
2017-06-19T22:24:37.533Z,4.93
2017-06-19T22:27:05.074Z,5.30
2017-06-19T22:29:31.689Z,5.63
2017-06-19T22:31:58.321Z,5.77
2017-06-19T22:34:24.947Z,5.53
2017-06-19T22:36:51.904Z,4.87
2017-06-19T22:39:18.514Z,5.43
2017-06-19T22:41:45.151Z,5.23
2017-06-19T22:44:11.760Z,6.20
2017-06-19T22:46:38.408Z,5.53
2017-06-19T22:49:05.056Z,5.33
2017-06-19T22:51:31.692Z,5.43
2017-06-19T22:53:58.326Z,5.67
2017-06-19T22:56:24.957Z,4.97
2017-06-19T22:58:51.592Z,6.10
2017-06-19T23:01:18.208Z,5.50
2017-06-19T23:03:44.880Z,5.77
2017-06-19T23:06:11.492Z,5.47
2017-06-19T23:08:38.111Z,6.07
2017-06-19T23:11:04.779Z,6.20
2017-06-19T23:13:31.427Z,5.93
2017-06-19T23:15:58.067Z,5.17
2017-06-19T23:18:24.694Z,5.43
2017-06-19T23:20:51.343Z,5.50
2017-06-19T23:23:17.976Z,6.23
2017-06-19T23:25:44.593Z,5.40
2017-06-19T23:28:11.233Z,7.10
2017-06-19T23:30:37.844Z,5.80
2017-06-19T23:33:04.482Z,5.60
2017-06-19T23:35:31.114Z,6.03
2017-06-19T23:37:57.723Z,6.23
2017-06-19T23:40:24.352Z,6.70
2017-06-19T23:42:50.988Z,6.47
2017-06-19T23:45:17.613Z,6.33
2017-06-19T23:47:44.259Z,5.27
2017-06-19T23:50:10.876Z,7.17
2017-06-19T23:52:37.512Z,6.40
2017-06-19T23:55:04.159Z,6.23
2017-06-19T23:57:30.777Z,6.73
2017-06-19T23:59:57.431Z,6.70
